createdAt,value
2018-03-25T00:00:25.828Z,18.00
2018-03-25T00:01:25.830Z,18.40
2018-03-25T00:02:25.817Z,18.10
2018-03-25T00:03:25.998Z,19.50
2018-03-25T00:04:25.792Z,20.70
2018-03-25T00:05:25.780Z,19.60
2018-03-25T00:06:26.012Z,17.80
2018-03-25T00:07:25.768Z,19.10
2018-03-25T00:08:25.785Z,19.20
2018-03-25T00:09:25.973Z,18.80
2018-03-25T00:10:25.949Z,18.70
2018-03-25T00:11:25.761Z,18.80
2018-03-25T00:12:25.730Z,18.30
2018-03-25T00:13:25.781Z,17.20
2018-03-25T00:14:25.743Z,17.60
2018-03-25T00:15:25.733Z,21.90
2018-03-25T00:16:25.699Z,21.90
2018-03-25T00:17:25.706Z,25.10
2018-03-25T00:18:25.920Z,23.10
2018-03-25T00:19:25.714Z,25.90
2018-03-25T00:20:25.693Z,21.30
2018-03-25T00:21:25.867Z,21.10
2018-03-25T00:22:25.666Z,19.30
2018-03-25T00:23:25.661Z,18.30
2018-03-25T00:24:25.717Z,20.30
2018-03-25T00:25:25.636Z,19.20
2018-03-25T00:26:25.638Z,18.80
2018-03-25T00:27:25.626Z,20.30
2018-03-25T00:28:25.616Z,19.10
2018-03-25T00:29:25.666Z,19.10
2018-03-25T00:30:25.622Z,19.60
2018-03-25T00:31:25.611Z,20.50
2018-03-25T00:32:25.597Z,22.10
2018-03-25T00:33:25.585Z,22.30
2018-03-25T00:34:25.603Z,22.00
2018-03-25T00:35:25.583Z,23.50
2018-03-25T00:36:25.754Z,21.30
2018-03-25T00:37:25.546Z,19.60
2018-03-25T00:38:25.730Z,20.60
2018-03-25T00:39:25.742Z,20.00
2018-03-25T00:40:25.740Z,20.60
2018-03-25T00:41:25.704Z,20.90
2018-03-25T00:42:25.748Z,20.60
2018-03-25T00:43:25.486Z,19.50
2018-03-25T00:44:25.494Z,20.90
2018-03-25T00:45:25.497Z,20.10
2018-03-25T00:46:25.484Z,19.90
2018-03-25T00:47:25.662Z,20.50
2018-03-25T00:48:25.656Z,21.20
2018-03-25T00:49:25.499Z,22.20
2018-03-25T00:50:25.446Z,21.40
2018-03-25T00:51:25.426Z,21.00
2018-03-25T00:52:25.418Z,19.20
2018-03-25T00:53:25.413Z,20.40
2018-03-25T00:54:25.403Z,22.20
2018-03-25T00:55:25.395Z,21.10
2018-03-25T00:56:25.417Z,20.90
2018-03-25T00:57:25.391Z,20.90
2018-03-25T00:58:25.578Z,20.20
2018-03-25T00:59:25.570Z,20.10
2018-03-25T01:00:25.373Z,20.50
2018-03-25T01:01:25.567Z,21.50
2018-03-25T01:02:25.550Z,20.70
2018-03-25T01:03:25.352Z,22.00
2018-03-25T01:04:25.562Z,20.90
2018-03-25T01:05:25.323Z,22.40
2018-03-25T01:06:25.315Z,22.30
2018-03-25T01:07:25.330Z,22.60
2018-03-25T01:08:25.297Z,21.40
2018-03-25T01:09:25.330Z,21.50
2018-03-25T01:10:25.281Z,21.40
2018-03-25T01:11:25.475Z,20.10
2018-03-25T01:12:25.473Z,21.50
2018-03-25T01:13:25.462Z,21.90
2018-03-25T01:14:25.265Z,21.90
2018-03-25T01:15:25.457Z,24.00
2018-03-25T01:16:25.250Z,23.30
2018-03-25T01:17:25.240Z,22.80
2018-03-25T01:18:25.442Z,22.40
2018-03-25T01:19:25.220Z,22.20
2018-03-25T01:20:25.408Z,22.40
2018-03-25T01:21:25.203Z,24.90
2018-03-25T01:22:25.199Z,22.00
2018-03-25T01:23:25.179Z,21.10
2018-03-25T01:24:25.186Z,20.90
2018-03-25T01:25:25.176Z,20.50
2018-03-25T01:26:25.166Z,21.40
2018-03-25T01:27:25.170Z,21.90
2018-03-25T01:28:25.140Z,21.00
2018-03-25T01:29:25.347Z,23.30
2018-03-25T01:30:25.140Z,21.80
2018-03-25T01:31:25.331Z,24.10
2018-03-25T01:32:25.111Z,22.40
2018-03-25T01:33:25.118Z,23.70
2018-03-25T01:34:25.302Z,21.80
2018-03-25T01:35:25.100Z,22.90
2018-03-25T01:36:25.088Z,21.60
2018-03-25T01:37:25.098Z,21.10
2018-03-25T01:38:25.062Z,21.10
2018-03-25T01:39:25.282Z,21.60
2018-03-25T01:40:25.274Z,21.80
2018-03-25T01:41:25.041Z,21.80
2018-03-25T01:42:25.231Z,21.30
2018-03-25T01:43:25.019Z,23.00
2018-03-25T01:44:25.219Z,24.40
2018-03-25T01:45:25.016Z,26.10
2018-03-25T01:46:25.010Z,26.30
2018-03-25T01:47:25.014Z,25.80
2018-03-25T01:48:25.195Z,26.30
2018-03-25T01:49:24.987Z,27.70
2018-03-25T01:50:25.172Z,28.70
2018-03-25T01:51:24.971Z,28.40
2018-03-25T01:52:24.962Z,30.10
2018-03-25T01:53:25.142Z,27.00
2018-03-25T01:54:24.932Z,27.10
2018-03-25T01:55:24.938Z,29.90
2018-03-25T01:56:24.932Z,25.50
2018-03-25T01:57:24.909Z,24.60
2018-03-25T01:58:24.913Z,22.90
2018-03-25T01:59:24.908Z,24.10
2018-03-25T02:00:24.898Z,22.20
2018-03-25T02:01:24.880Z,23.50
2018-03-25T02:02:25.089Z,23.20
2018-03-25T02:03:24.867Z,21.40
2018-03-25T02:04:24.862Z,21.60
2018-03-25T02:05:24.846Z,21.50
2018-03-25T02:06:24.846Z,22.70
2018-03-25T02:07:24.842Z,22.10
2018-03-25T02:08:24.817Z,23.60
2018-03-25T02:09:24.843Z,24.50
2018-03-25T02:10:24.817Z,25.20
2018-03-25T02:11:24.996Z,26.10
2018-03-25T02:12:25.004Z,26.30
2018-03-25T02:13:24.780Z,28.70
2018-03-25T02:14:24.770Z,28.50
2018-03-25T02:15:24.786Z,28.20
2018-03-25T02:16:24.758Z,26.00
2018-03-25T02:17:24.960Z,27.20
2018-03-25T02:18:24.736Z,29.50
2018-03-25T02:19:24.731Z,25.10
2018-03-25T02:20:24.922Z,27.00
2018-03-25T02:21:24.709Z,31.60
2018-03-25T02:22:24.730Z,26.50
2018-03-25T02:23:24.711Z,26.30
2018-03-25T02:24:24.703Z,31.30
2018-03-25T02:25:24.690Z,26.50
2018-03-25T02:26:24.670Z,26.30
2018-03-25T02:27:24.659Z,28.20
2018-03-25T02:28:24.664Z,26.80
2018-03-25T02:29:24.672Z,30.00
2018-03-25T02:30:24.860Z,28.90
2018-03-25T02:31:24.644Z,26.50
2018-03-25T02:32:24.649Z,26.20
2018-03-25T02:33:24.614Z,23.10
2018-03-25T02:34:24.628Z,22.70
2018-03-25T02:35:24.599Z,22.40
2018-03-25T02:36:24.600Z,22.00
2018-03-25T02:37:24.590Z,22.30
2018-03-25T02:38:24.570Z,21.10
2018-03-25T02:39:24.637Z,21.50
2018-03-25T02:40:24.554Z,21.30
2018-03-25T02:41:24.544Z,21.90
2018-03-25T02:42:24.544Z,21.60
2018-03-25T02:43:24.529Z,24.30
2018-03-25T02:44:24.526Z,28.80
2018-03-25T02:45:24.566Z,27.70
2018-03-25T02:46:24.709Z,23.60
2018-03-25T02:47:24.494Z,23.10
2018-03-25T02:48:24.691Z,22.20
2018-03-25T02:49:24.692Z,24.90
2018-03-25T02:50:24.676Z,22.30
2018-03-25T02:51:24.681Z,22.10
2018-03-25T02:52:24.454Z,21.10
2018-03-25T02:53:24.649Z,22.30
2018-03-25T02:54:24.640Z,23.00
2018-03-25T02:55:24.438Z,22.50
2018-03-25T02:56:24.625Z,22.70
2018-03-25T02:57:24.412Z,23.00
2018-03-25T02:58:24.403Z,25.60
2018-03-25T02:59:24.408Z,23.00
2018-03-25T03:00:24.592Z,23.30
2018-03-25T03:01:24.379Z,25.70
2018-03-25T03:02:24.378Z,24.20
2018-03-25T03:03:24.358Z,23.80
2018-03-25T03:04:24.362Z,24.30
2018-03-25T03:05:24.342Z,24.50
2018-03-25T03:06:24.544Z,23.60
2018-03-25T03:07:24.341Z,22.30
2018-03-25T03:08:24.547Z,25.20
2018-03-25T03:09:24.311Z,24.60
2018-03-25T03:10:24.302Z,21.30
2018-03-25T03:11:24.307Z,23.90
2018-03-25T03:12:24.289Z,22.00
2018-03-25T03:13:24.290Z,23.20
2018-03-25T03:14:24.268Z,23.90
2018-03-25T03:15:24.258Z,26.30
2018-03-25T03:16:24.260Z,27.50
2018-03-25T03:17:24.246Z,27.30
2018-03-25T03:18:24.236Z,27.70
2018-03-25T03:19:24.239Z,27.50
2018-03-25T03:20:24.216Z,27.00
2018-03-25T03:21:24.207Z,25.10
2018-03-25T03:22:24.201Z,25.00
2018-03-25T03:23:24.397Z,23.60
2018-03-25T03:24:24.387Z,23.50
2018-03-25T03:25:24.175Z,23.00
2018-03-25T03:26:24.166Z,22.00
2018-03-25T03:27:24.168Z,20.10
2018-03-25T03:28:24.148Z,22.10
2018-03-25T03:29:24.140Z,21.30
2018-03-25T03:30:24.134Z,24.50
2018-03-25T03:31:24.331Z,23.40
2018-03-25T03:32:24.128Z,24.30
2018-03-25T03:33:24.108Z,26.70
2018-03-25T03:34:24.101Z,26.20
2018-03-25T03:35:24.090Z,24.20
2018-03-25T03:36:24.082Z,24.20
2018-03-25T03:37:24.072Z,25.90
2018-03-25T03:38:24.065Z,23.60
2018-03-25T03:39:24.069Z,26.30
2018-03-25T03:40:24.053Z,24.50
2018-03-25T03:41:24.053Z,23.70
2018-03-25T03:42:24.245Z,26.20
2018-03-25T03:43:24.237Z,24.60
2018-03-25T03:44:24.013Z,22.90
2018-03-25T03:45:24.031Z,22.10
2018-03-25T03:46:23.997Z,21.60
2018-03-25T03:47:23.989Z,25.80
2018-03-25T03:48:23.994Z,22.40
2018-03-25T03:49:23.988Z,26.10
2018-03-25T03:50:23.976Z,22.20
2018-03-25T03:51:23.951Z,23.80
2018-03-25T03:52:23.943Z,24.10
2018-03-25T03:53:24.174Z,23.00
2018-03-25T03:54:23.928Z,23.40
2018-03-25T03:55:23.919Z,22.50
2018-03-25T03:56:24.119Z,26.10
2018-03-25T03:57:24.107Z,26.70
2018-03-25T03:58:23.893Z,24.60
2018-03-25T03:59:23.887Z,26.60
2018-03-25T04:00:23.878Z,27.10
2018-03-25T04:01:24.086Z,22.50
2018-03-25T04:02:23.858Z,25.20
2018-03-25T04:03:23.887Z,25.20
2018-03-25T04:04:23.845Z,24.10
2018-03-25T04:05:23.860Z,24.30
2018-03-25T04:06:23.825Z,25.10
2018-03-25T04:07:23.829Z,25.40
2018-03-25T04:08:23.807Z,24.30
2018-03-25T04:09:23.802Z,24.40
2018-03-25T04:10:23.801Z,24.30
2018-03-25T04:11:23.784Z,24.40
2018-03-25T04:12:23.789Z,24.20
2018-03-25T04:13:23.765Z,23.50
2018-03-25T04:14:23.771Z,22.50
2018-03-25T04:15:23.762Z,24.30
2018-03-25T04:16:23.964Z,24.90
2018-03-25T04:17:23.748Z,24.30
2018-03-25T04:18:23.929Z,26.40
2018-03-25T04:19:23.936Z,25.30
2018-03-25T04:20:23.718Z,23.60
2018-03-25T04:21:23.694Z,23.20
2018-03-25T04:22:23.716Z,22.40
2018-03-25T04:23:23.681Z,24.20
2018-03-25T04:24:23.667Z,21.40
2018-03-25T04:25:23.676Z,20.90
2018-03-25T04:26:23.668Z,24.80
2018-03-25T04:27:23.659Z,27.10
2018-03-25T04:28:23.653Z,29.70
2018-03-25T04:29:23.627Z,25.40
2018-03-25T04:30:23.618Z,25.60
2018-03-25T04:31:23.620Z,26.00
2018-03-25T04:32:23.609Z,24.20
2018-03-25T04:33:23.591Z,27.40
2018-03-25T04:34:23.583Z,25.20
2018-03-25T04:35:23.588Z,23.90
2018-03-25T04:36:23.563Z,22.70
2018-03-25T04:37:23.558Z,23.80
2018-03-25T04:38:23.555Z,22.10
2018-03-25T04:39:23.543Z,22.00
2018-03-25T04:40:23.529Z,21.80
2018-03-25T04:41:23.522Z,22.10
2018-03-25T04:42:23.525Z,23.70
2018-03-25T04:43:23.511Z,22.80
2018-03-25T04:44:23.496Z,19.40
2018-03-25T04:45:23.693Z,20.20
2018-03-25T04:46:23.481Z,21.00
2018-03-25T04:47:23.516Z,22.20
2018-03-25T04:48:23.475Z,22.20
2018-03-25T04:49:23.456Z,21.60
2018-03-25T04:50:23.652Z,20.90
2018-03-25T04:51:23.441Z,19.20
2018-03-25T04:52:23.641Z,19.40
2018-03-25T04:53:23.424Z,19.30
2018-03-25T04:54:23.442Z,20.70
2018-03-25T04:55:23.402Z,21.40
2018-03-25T04:56:23.396Z,23.70
2018-03-25T04:57:23.590Z,21.80
2018-03-25T04:58:23.582Z,24.20
2018-03-25T04:59:23.382Z,23.30
2018-03-25T05:00:23.362Z,24.70
2018-03-25T05:01:23.353Z,24.10
2018-03-25T05:02:23.356Z,23.70
2018-03-25T05:03:23.539Z,23.00
2018-03-25T05:04:23.337Z,22.60
2018-03-25T05:05:23.353Z,22.40
2018-03-25T05:06:23.321Z,21.30
2018-03-25T05:07:23.305Z,22.20
2018-03-25T05:08:23.302Z,22.70
2018-03-25T05:09:23.487Z,23.50
2018-03-25T05:10:23.495Z,23.50
2018-03-25T05:11:23.266Z,22.90
2018-03-25T05:12:23.259Z,24.10
2018-03-25T05:13:23.247Z,23.30
2018-03-25T05:14:23.239Z,23.60
2018-03-25T05:15:23.252Z,21.80
2018-03-25T05:16:23.224Z,22.30
2018-03-25T05:17:23.222Z,23.10
2018-03-25T05:18:23.208Z,21.60
2018-03-25T05:19:23.401Z,21.80
2018-03-25T05:20:23.208Z,23.10
2018-03-25T05:21:23.194Z,20.20
2018-03-25T05:22:23.169Z,22.10
2018-03-25T05:23:23.159Z,21.20
2018-03-25T05:24:23.152Z,20.70
2018-03-25T05:25:23.346Z,20.80
2018-03-25T05:26:23.135Z,22.10
2018-03-25T05:27:23.135Z,23.00
2018-03-25T05:28:23.132Z,24.70
2018-03-25T05:29:23.109Z,24.00
2018-03-25T05:30:23.305Z,24.80
2018-03-25T05:31:23.305Z,26.10
2018-03-25T05:32:23.094Z,25.10
2018-03-25T05:33:23.090Z,25.70
2018-03-25T05:34:23.299Z,28.00
2018-03-25T05:35:23.077Z,29.50
2018-03-25T05:36:23.074Z,25.50
2018-03-25T05:37:23.038Z,24.50
2018-03-25T05:38:23.039Z,24.00
2018-03-25T05:39:23.019Z,23.20
2018-03-25T05:40:23.218Z,27.60
2018-03-25T05:41:23.020Z,23.40
2018-03-25T05:42:23.006Z,23.60
2018-03-25T05:43:22.986Z,24.20
2018-03-25T05:44:22.973Z,26.10
2018-03-25T05:45:22.970Z,23.00
2018-03-25T05:46:22.969Z,23.80
2018-03-25T05:47:22.971Z,21.20
2018-03-25T05:48:22.947Z,22.10
2018-03-25T05:49:22.962Z,21.20
2018-03-25T05:50:22.921Z,20.50
2018-03-25T05:51:22.926Z,19.60
2018-03-25T05:52:22.912Z,21.90
2018-03-25T05:53:22.908Z,21.40
2018-03-25T05:54:22.903Z,23.20
2018-03-25T05:55:22.877Z,21.20
2018-03-25T05:56:22.883Z,20.50
2018-03-25T05:57:23.074Z,21.30
2018-03-25T05:58:23.061Z,20.80
2018-03-25T05:59:22.843Z,22.30
2018-03-25T06:00:22.854Z,21.40
2018-03-25T06:01:22.832Z,22.10
2018-03-25T06:02:22.819Z,22.00
2018-03-25T06:03:22.819Z,25.10
2018-03-25T06:04:22.814Z,21.10
2018-03-25T06:05:23.004Z,22.30
2018-03-25T06:06:22.783Z,21.80
2018-03-25T06:07:22.790Z,22.70
2018-03-25T06:08:22.767Z,22.80
2018-03-25T06:09:22.757Z,22.50
2018-03-25T06:10:22.954Z,21.40
2018-03-25T06:11:22.740Z,19.60
2018-03-25T06:12:22.730Z,22.20
2018-03-25T06:13:22.741Z,21.60
2018-03-25T06:14:22.929Z,24.10
2018-03-25T06:15:22.907Z,23.40
2018-03-25T06:16:22.707Z,26.30
2018-03-25T06:17:22.689Z,25.90
2018-03-25T06:18:22.678Z,26.50
2018-03-25T06:19:22.668Z,23.00
2018-03-25T06:20:22.660Z,21.90
2018-03-25T06:21:22.649Z,23.40
2018-03-25T06:22:22.643Z,24.00
2018-03-25T06:23:22.697Z,31.80
2018-03-25T06:24:22.627Z,27.00
2018-03-25T06:25:22.618Z,29.10
2018-03-25T06:26:22.610Z,29.20
2018-03-25T06:27:22.614Z,28.80
2018-03-25T06:28:22.591Z,30.00
2018-03-25T06:29:22.606Z,26.70
2018-03-25T06:30:22.785Z,26.30
2018-03-25T06:31:22.778Z,26.20
2018-03-25T06:32:22.560Z,25.00
2018-03-25T06:33:22.546Z,27.40
2018-03-25T06:34:22.553Z,27.90
2018-03-25T06:35:22.530Z,27.60
2018-03-25T06:36:22.524Z,27.60
2018-03-25T06:37:22.515Z,27.70
2018-03-25T06:38:22.504Z,27.40
2018-03-25T06:39:22.517Z,27.70
2018-03-25T06:40:22.495Z,28.20
2018-03-25T06:41:22.695Z,27.60
2018-03-25T06:42:22.468Z,32.30
2018-03-25T06:43:22.678Z,33.00
2018-03-25T06:44:22.465Z,33.90
2018-03-25T06:45:22.451Z,33.30
2018-03-25T06:46:22.640Z,32.20
2018-03-25T06:47:22.427Z,30.90
2018-03-25T06:48:22.416Z,31.40
2018-03-25T06:49:22.410Z,32.50
2018-03-25T06:50:22.405Z,32.20
2018-03-25T06:51:22.610Z,34.70
2018-03-25T06:52:22.398Z,35.00
2018-03-25T06:53:22.592Z,38.70
2018-03-25T06:54:22.367Z,37.10
2018-03-25T06:55:22.361Z,39.90
2018-03-25T06:56:22.365Z,47.20
2018-03-25T06:57:22.556Z,53.40
2018-03-25T06:58:22.337Z,52.10
2018-03-25T06:59:22.327Z,44.60
2018-03-25T07:00:22.316Z,44.40
2018-03-25T07:01:22.322Z,41.20
2018-03-25T07:02:22.303Z,40.20
2018-03-25T07:03:22.509Z,40.70
2018-03-25T07:04:22.295Z,40.20
2018-03-25T07:05:22.275Z,38.90
2018-03-25T07:06:22.274Z,41.20
2018-03-25T07:07:22.264Z,39.30
2018-03-25T07:08:22.250Z,40.50
2018-03-25T07:09:22.250Z,41.70
2018-03-25T07:10:22.253Z,39.10
2018-03-25T07:11:22.225Z,36.50
2018-03-25T07:12:22.220Z,34.20
2018-03-25T07:13:22.210Z,31.10
2018-03-25T07:14:22.235Z,35.10
2018-03-25T07:15:22.196Z,30.40
2018-03-25T07:16:22.215Z,29.70
2018-03-25T07:17:22.404Z,26.70
2018-03-25T07:18:22.188Z,27.60
2018-03-25T07:19:22.377Z,24.40
2018-03-25T07:20:22.154Z,24.10
2018-03-25T07:21:22.160Z,24.80
2018-03-25T07:22:22.156Z,25.90
2018-03-25T07:23:22.353Z,24.50
2018-03-25T07:24:22.152Z,24.70
2018-03-25T07:25:22.143Z,25.00
2018-03-25T07:26:22.129Z,24.70
2018-03-25T07:27:22.119Z,23.70
2018-03-25T07:28:22.098Z,25.20
2018-03-25T07:29:22.114Z,24.60
2018-03-25T07:30:22.087Z,23.80
2018-03-25T07:31:22.082Z,25.00
2018-03-25T07:32:22.086Z,25.20
2018-03-25T07:33:22.080Z,22.90
2018-03-25T07:34:22.063Z,23.10
2018-03-25T07:35:22.056Z,23.40
2018-03-25T07:36:22.052Z,23.10
2018-03-25T07:37:22.045Z,23.40
2018-03-25T07:38:22.039Z,24.40
2018-03-25T07:39:22.044Z,24.00
2018-03-25T07:40:22.030Z,22.30
2018-03-25T07:41:22.025Z,23.10
2018-03-25T07:42:22.032Z,23.20
2018-03-25T07:43:22.014Z,22.10
2018-03-25T07:44:22.010Z,23.80
2018-03-25T07:45:22.028Z,23.30
2018-03-25T07:46:22.004Z,22.20
2018-03-25T07:47:21.993Z,23.00
2018-03-25T07:48:21.990Z,23.80
2018-03-25T07:49:21.989Z,24.10
2018-03-25T07:50:21.996Z,23.50
2018-03-25T07:51:21.980Z,24.20
2018-03-25T07:52:21.983Z,23.90
2018-03-25T07:53:21.971Z,23.70
2018-03-25T07:54:21.988Z,23.70
2018-03-25T07:55:21.976Z,24.10
2018-03-25T07:56:21.982Z,24.20
2018-03-25T07:57:21.958Z,23.40
2018-03-25T07:58:22.171Z,23.50
2018-03-25T07:59:21.978Z,23.70
2018-03-25T08:00:21.962Z,24.80
2018-03-25T08:01:21.946Z,26.90
2018-03-25T08:02:21.942Z,24.00
2018-03-25T08:03:21.948Z,25.20
2018-03-25T08:04:21.935Z,26.50
2018-03-25T08:05:21.932Z,24.20
2018-03-25T08:06:21.933Z,23.80
2018-03-25T08:07:22.134Z,24.10
2018-03-25T08:08:21.922Z,26.80
2018-03-25T08:09:21.919Z,25.90
2018-03-25T08:10:21.915Z,23.90
2018-03-25T08:11:21.914Z,23.50
2018-03-25T08:12:21.910Z,24.60
2018-03-25T08:13:21.908Z,25.30
2018-03-25T08:14:21.945Z,24.80
2018-03-25T08:15:21.907Z,23.40
2018-03-25T08:16:21.902Z,23.40
2018-03-25T08:17:21.899Z,25.30
2018-03-25T08:18:22.099Z,23.00
2018-03-25T08:19:21.897Z,24.40
2018-03-25T08:20:21.893Z,23.20
2018-03-25T08:21:21.911Z,23.00
2018-03-25T08:22:21.897Z,21.10
2018-03-25T08:23:21.896Z,23.70
2018-03-25T08:24:22.088Z,22.30
2018-03-25T08:25:21.879Z,22.20
2018-03-25T08:26:21.882Z,22.80
2018-03-25T08:27:21.886Z,21.90
2018-03-25T08:28:21.875Z,23.90
2018-03-25T08:29:21.889Z,21.20
2018-03-25T08:30:22.079Z,21.30
2018-03-25T08:31:21.874Z,22.80
2018-03-25T08:32:22.088Z,23.30
2018-03-25T08:33:21.882Z,23.60
2018-03-25T08:34:21.870Z,19.80
2018-03-25T08:35:21.881Z,20.70
2018-03-25T08:36:21.870Z,21.30
2018-03-25T08:37:21.867Z,21.30
2018-03-25T08:38:21.870Z,21.60
2018-03-25T08:39:22.069Z,20.90
2018-03-25T08:40:21.886Z,20.80
2018-03-25T08:41:21.881Z,22.70
2018-03-25T08:42:21.877Z,19.80
2018-03-25T08:43:21.872Z,21.50
2018-03-25T08:44:22.066Z,19.20
2018-03-25T08:45:22.075Z,21.30
2018-03-25T08:46:22.061Z,19.30
2018-03-25T08:47:21.857Z,20.30
2018-03-25T08:48:21.869Z,19.20
2018-03-25T08:49:21.876Z,19.20
2018-03-25T08:50:21.851Z,18.40
2018-03-25T08:51:21.859Z,18.60
2018-03-25T08:52:21.847Z,28.70
2018-03-25T08:53:21.857Z,18.70
2018-03-25T08:54:21.843Z,19.20
2018-03-25T08:55:21.843Z,19.30
2018-03-25T08:56:21.851Z,19.00
2018-03-25T08:57:21.833Z,20.10
2018-03-25T08:58:21.845Z,19.70
2018-03-25T08:59:21.830Z,20.30
2018-03-25T09:00:21.826Z,19.30
2018-03-25T09:01:21.833Z,20.00
2018-03-25T09:02:21.824Z,21.10
2018-03-25T09:03:21.822Z,20.40
2018-03-25T09:04:21.830Z,20.20
2018-03-25T09:05:21.824Z,20.90
2018-03-25T09:06:21.824Z,19.30
2018-03-25T09:07:21.830Z,21.50
2018-03-25T09:08:21.812Z,20.20
2018-03-25T09:09:21.813Z,20.30
2018-03-25T09:10:21.811Z,21.10
2018-03-25T09:11:21.996Z,22.40
2018-03-25T09:12:21.788Z,22.10
2018-03-25T09:13:22.013Z,21.80
2018-03-25T09:14:21.798Z,21.10
2018-03-25T09:15:21.988Z,22.00
2018-03-25T09:16:21.786Z,22.70
2018-03-25T09:17:21.771Z,19.80
2018-03-25T09:18:21.983Z,22.60
2018-03-25T09:19:21.776Z,22.20
2018-03-25T09:20:21.763Z,22.20
2018-03-25T09:21:21.769Z,21.20
2018-03-25T09:22:21.752Z,23.70
2018-03-25T09:23:21.747Z,23.60
2018-03-25T09:24:21.754Z,21.20
2018-03-25T09:25:21.947Z,22.10
2018-03-25T09:26:21.794Z,22.40
2018-03-25T09:27:21.729Z,26.50
2018-03-25T09:28:21.731Z,21.90
2018-03-25T09:29:21.938Z,23.20
2018-03-25T09:30:21.717Z,22.40
2018-03-25T09:31:21.737Z,21.70
2018-03-25T09:32:21.709Z,21.60
2018-03-25T09:33:21.702Z,22.40
2018-03-25T09:34:21.711Z,21.00
2018-03-25T09:35:21.724Z,23.50
2018-03-25T09:36:21.708Z,24.00
2018-03-25T09:37:21.732Z,22.20
2018-03-25T09:38:21.694Z,22.70
2018-03-25T09:39:21.879Z,22.70
2018-03-25T09:40:21.675Z,22.40
2018-03-25T09:41:21.884Z,23.10
2018-03-25T09:42:21.667Z,21.40
2018-03-25T09:43:21.670Z,23.40
2018-03-25T09:44:21.669Z,23.80
2018-03-25T09:45:21.652Z,22.10
2018-03-25T09:46:21.667Z,22.70
2018-03-25T09:47:21.854Z,21.80
2018-03-25T09:48:21.637Z,23.70
2018-03-25T09:49:21.851Z,23.80
2018-03-25T09:50:21.845Z,22.20
2018-03-25T09:51:21.634Z,22.70
2018-03-25T09:52:21.629Z,22.60
2018-03-25T09:53:21.630Z,21.40
2018-03-25T09:54:21.817Z,23.40
2018-03-25T09:55:21.603Z,24.20
2018-03-25T09:56:21.621Z,22.10
2018-03-25T09:57:21.797Z,21.70
2018-03-25T09:58:21.803Z,23.50
2018-03-25T09:59:21.597Z,24.00
2018-03-25T10:00:21.591Z,23.50
2018-03-25T10:01:21.588Z,24.60
2018-03-25T10:02:21.795Z,25.30
2018-03-25T10:03:21.581Z,24.10
2018-03-25T10:04:21.779Z,24.60
2018-03-25T10:05:21.571Z,25.70
2018-03-25T10:06:21.555Z,25.20
2018-03-25T10:07:21.547Z,25.90
2018-03-25T10:08:21.570Z,25.80
2018-03-25T10:09:21.551Z,22.80
2018-03-25T10:10:21.546Z,23.90
2018-03-25T10:11:21.540Z,24.10
2018-03-25T10:12:21.524Z,24.00
2018-03-25T10:13:21.536Z,23.60
2018-03-25T10:14:21.729Z,23.10
2018-03-25T10:15:21.523Z,24.60
2018-03-25T10:16:21.520Z,25.70
2018-03-25T10:17:21.503Z,25.40
2018-03-25T10:18:21.521Z,23.50
2018-03-25T10:19:21.503Z,21.90
2018-03-25T10:20:21.487Z,25.50
2018-03-25T10:21:21.494Z,25.10
2018-03-25T10:22:21.506Z,24.10
2018-03-25T10:23:21.474Z,25.10
2018-03-25T10:24:21.485Z,24.20
2018-03-25T10:25:21.471Z,24.60
2018-03-25T10:26:21.463Z,24.40
2018-03-25T10:27:21.467Z,23.80
2018-03-25T10:28:21.469Z,22.90
2018-03-25T10:29:21.448Z,26.00
2018-03-25T10:30:21.454Z,24.80
2018-03-25T10:31:21.641Z,23.90
2018-03-25T10:32:21.444Z,25.80
2018-03-25T10:33:21.456Z,26.90
2018-03-25T10:34:21.640Z,26.60
2018-03-25T10:35:21.422Z,24.00
2018-03-25T10:36:21.431Z,25.70
2018-03-25T10:37:21.618Z,26.50
2018-03-25T10:38:21.421Z,23.00
2018-03-25T10:39:21.607Z,24.40
2018-03-25T10:40:21.433Z,22.30
2018-03-25T10:41:21.412Z,23.50
2018-03-25T10:42:21.600Z,23.40
2018-03-25T10:43:21.600Z,24.40
2018-03-25T10:44:21.384Z,22.20
2018-03-25T10:45:21.583Z,23.20
2018-03-25T10:46:21.580Z,23.60
2018-03-25T10:47:21.573Z,24.80
2018-03-25T10:48:21.377Z,23.20
2018-03-25T10:49:21.577Z,21.00
2018-03-25T10:50:21.562Z,22.60
2018-03-25T10:51:21.375Z,22.40
2018-03-25T10:52:21.560Z,23.90
2018-03-25T10:53:21.550Z,21.30
2018-03-25T10:54:21.351Z,23.40
2018-03-25T10:55:21.338Z,23.40
2018-03-25T10:56:21.344Z,22.50
2018-03-25T10:57:21.326Z,22.50
2018-03-25T10:58:21.527Z,21.50
2018-03-25T10:59:21.526Z,22.60
2018-03-25T11:00:21.318Z,24.30
2018-03-25T11:01:21.310Z,22.80
2018-03-25T11:02:21.306Z,23.10
2018-03-25T11:03:21.301Z,22.70
2018-03-25T11:04:21.502Z,23.30
2018-03-25T11:05:21.500Z,23.50
2018-03-25T11:06:21.511Z,23.20
2018-03-25T11:07:21.496Z,23.60
2018-03-25T11:08:21.282Z,24.20
2018-03-25T11:09:21.276Z,24.50
2018-03-25T11:10:21.271Z,22.50
2018-03-25T11:11:21.278Z,23.70
2018-03-25T11:12:21.468Z,24.60
2018-03-25T11:13:21.291Z,24.30
2018-03-25T11:14:21.258Z,24.10
2018-03-25T11:15:21.264Z,22.40
2018-03-25T11:16:21.248Z,24.00
2018-03-25T11:17:21.326Z,23.60
2018-03-25T11:18:21.285Z,24.00
2018-03-25T11:19:21.236Z,23.00
2018-03-25T11:20:21.451Z,22.80
2018-03-25T11:21:21.242Z,22.60
2018-03-25T11:22:21.223Z,23.40
2018-03-25T11:23:21.240Z,22.60
2018-03-25T11:24:21.218Z,21.80
2018-03-25T11:25:21.222Z,22.30
2018-03-25T11:26:21.207Z,22.40
2018-03-25T11:27:21.203Z,22.90
2018-03-25T11:28:21.213Z,22.80
2018-03-25T11:29:21.223Z,24.00
2018-03-25T11:30:21.200Z,22.20
2018-03-25T11:31:21.188Z,22.90
2018-03-25T11:32:21.396Z,24.20
2018-03-25T11:33:21.398Z,24.00
2018-03-25T11:34:21.203Z,23.80
2018-03-25T11:35:21.395Z,22.50
2018-03-25T11:36:21.384Z,23.90
2018-03-25T11:37:21.160Z,24.20
2018-03-25T11:38:21.364Z,23.30
2018-03-25T11:39:21.162Z,22.10
2018-03-25T11:40:21.156Z,23.10
2018-03-25T11:41:21.142Z,24.40
2018-03-25T11:42:21.343Z,23.70
2018-03-25T11:43:21.135Z,22.80
2018-03-25T11:44:21.145Z,23.90
2018-03-25T11:45:21.146Z,24.10
2018-03-25T11:46:21.328Z,22.60
2018-03-25T11:47:21.121Z,23.00
2018-03-25T11:48:21.116Z,22.50
2018-03-25T11:49:21.120Z,22.00
2018-03-25T11:50:21.106Z,24.60
2018-03-25T11:51:21.103Z,23.60
2018-03-25T11:52:21.096Z,25.70
2018-03-25T11:53:21.319Z,22.90
2018-03-25T11:54:21.092Z,22.90
2018-03-25T11:55:21.090Z,23.20
2018-03-25T11:56:21.081Z,22.70
2018-03-25T11:57:21.080Z,21.20
2018-03-25T11:58:21.074Z,23.10
2018-03-25T11:59:21.095Z,23.90
2018-03-25T12:00:21.081Z,22.60
2018-03-25T12:01:21.073Z,21.00
2018-03-25T12:02:21.056Z,23.00
2018-03-25T12:03:21.055Z,22.70
2018-03-25T12:04:21.256Z,20.80
2018-03-25T12:05:21.246Z,23.30
2018-03-25T12:06:21.046Z,20.50
2018-03-25T12:07:21.240Z,21.70
2018-03-25T12:08:21.036Z,25.10
2018-03-25T12:09:21.032Z,21.40
2018-03-25T12:10:21.027Z,22.90
2018-03-25T12:11:21.235Z,22.30
2018-03-25T12:12:21.015Z,22.20
2018-03-25T12:13:21.220Z,20.80
2018-03-25T12:14:21.019Z,20.80
2018-03-25T12:15:21.004Z,21.50
2018-03-25T12:16:21.241Z,22.30
2018-03-25T12:17:21.008Z,21.20
2018-03-25T12:18:20.996Z,21.40
2018-03-25T12:19:20.992Z,21.90
2018-03-25T12:20:20.986Z,23.30
2018-03-25T12:21:20.983Z,21.90
2018-03-25T12:22:20.975Z,22.70
2018-03-25T12:23:20.971Z,21.10
2018-03-25T12:24:20.979Z,21.60
2018-03-25T12:25:21.170Z,21.90
2018-03-25T12:26:20.974Z,24.10
2018-03-25T12:27:21.161Z,21.10
2018-03-25T12:28:20.951Z,23.50
2018-03-25T12:29:20.952Z,20.60
2018-03-25T12:30:21.149Z,23.90
2018-03-25T12:31:20.940Z,22.70
2018-03-25T12:32:20.947Z,22.90
2018-03-25T12:33:20.936Z,20.50
2018-03-25T12:34:20.954Z,21.60
2018-03-25T12:35:20.935Z,19.70
2018-03-25T12:36:20.939Z,20.00
2018-03-25T12:37:20.933Z,20.30
2018-03-25T12:38:21.138Z,20.30
2018-03-25T12:39:21.114Z,20.70
2018-03-25T12:40:20.910Z,21.50
2018-03-25T12:41:20.902Z,22.20
2018-03-25T12:42:20.910Z,20.20
2018-03-25T12:43:20.896Z,25.40
2018-03-25T12:44:20.905Z,21.30
2018-03-25T12:45:20.888Z,23.00
2018-03-25T12:46:20.901Z,20.10
2018-03-25T12:47:20.882Z,21.10
2018-03-25T12:48:20.876Z,22.30
2018-03-25T12:49:20.881Z,24.00
2018-03-25T12:50:20.926Z,22.40
2018-03-25T12:51:20.878Z,22.00
2018-03-25T12:52:20.876Z,21.10